createdAt,value
2018-05-24T00:01:30.072Z,100827.22
2018-05-24T00:03:57.452Z,100830.91
2018-05-24T00:06:24.840Z,100822.63
2018-05-24T00:08:52.226Z,100824.46
2018-05-24T00:11:19.633Z,100824.60
2018-05-24T00:13:47.034Z,100821.20
2018-05-24T00:16:14.412Z,100820.49
2018-05-24T00:18:42.637Z,100814.95
2018-05-24T00:21:10.020Z,100808.31
2018-05-24T00:23:37.399Z,100805.37
2018-05-24T00:26:04.785Z,100804.00
2018-05-24T00:28:32.173Z,100797.73
2018-05-24T00:30:59.565Z,100797.92
2018-05-24T00:33:26.947Z,100798.93
2018-05-24T00:35:54.353Z,100790.75
2018-05-24T00:38:21.736Z,100789.23
2018-05-24T00:40:49.139Z,100778.83
2018-05-24T00:43:16.508Z,100776.78
2018-05-24T00:45:43.905Z,100774.83
2018-05-24T00:48:11.986Z,100776.44
2018-05-24T00:50:39.409Z,100770.78
2018-05-24T00:53:06.769Z,100771.85
2018-05-24T00:55:41.020Z,100773.80
2018-05-24T00:58:08.409Z,100765.26
2018-05-24T01:00:35.799Z,100764.15
2018-05-24T01:03:03.183Z,100756.41
2018-05-24T01:05:30.588Z,100762.24
2018-05-24T01:07:57.970Z,100759.95
2018-05-24T01:10:25.368Z,100758.11
2018-05-24T01:12:52.770Z,100756.66
2018-05-24T01:15:20.155Z,100753.02
2018-05-24T01:17:47.535Z,100757.16
2018-05-24T01:20:14.953Z,100757.78
2018-05-24T01:22:42.336Z,100760.05
2018-05-24T01:25:09.729Z,100768.87
2018-05-24T01:27:37.113Z,100766.37
2018-05-24T01:30:04.512Z,100769.23
2018-05-24T01:32:31.897Z,100773.73
2018-05-24T01:34:59.276Z,100778.62
2018-05-24T01:37:38.308Z,100784.44
2018-05-24T01:40:05.728Z,100779.37
2018-05-24T01:42:33.108Z,100786.13
2018-05-24T01:45:00.493Z,100787.80
2018-05-24T01:47:27.875Z,100792.45
2018-05-24T01:49:55.275Z,100794.69
2018-05-24T01:52:22.652Z,100799.33
2018-05-24T01:54:50.052Z,100799.69
2018-05-24T01:57:17.435Z,100804.00
2018-05-24T01:59:44.835Z,100808.35
2018-05-24T02:02:12.233Z,100813.00
2018-05-24T02:04:39.628Z,100818.86
2018-05-24T02:07:07.016Z,100810.00
2018-05-24T02:09:35.583Z,100810.75
2018-05-24T02:12:02.978Z,100804.80
2018-05-24T02:14:30.367Z,100801.82
2018-05-24T02:16:57.762Z,100801.73
2018-05-24T02:19:25.150Z,100796.63
2018-05-24T02:21:52.541Z,100797.75
2018-05-24T02:24:19.920Z,100797.47
2018-05-24T02:26:47.308Z,100800.52
2018-05-24T02:29:14.693Z,100800.82
2018-05-24T02:31:42.092Z,100799.11
2018-05-24T02:34:09.473Z,100795.50
2018-05-24T02:36:36.868Z,100798.98
2018-05-24T02:39:06.813Z,100798.10
2018-05-24T02:41:34.216Z,100793.86
2018-05-24T02:44:01.597Z,100797.27
2018-05-24T02:46:28.999Z,100798.20
2018-05-24T02:48:56.379Z,100797.98
2018-05-24T02:51:23.811Z,100790.55
2018-05-24T02:53:51.943Z,100794.97
2018-05-24T02:56:19.402Z,100787.89
2018-05-24T02:58:46.725Z,100788.54
2018-05-24T03:01:14.691Z,100787.55
2018-05-24T03:03:42.052Z,100793.20
2018-05-24T03:06:09.439Z,100791.92
2018-05-24T03:08:36.826Z,100787.62
2018-05-24T03:11:04.208Z,100792.69
2018-05-24T03:13:31.594Z,100793.38
2018-05-24T03:15:58.993Z,100792.02
2018-05-24T03:18:26.369Z,100786.33
2018-05-24T03:20:53.751Z,100789.02
2018-05-24T03:23:21.129Z,100794.09
2018-05-24T03:25:48.532Z,100799.16
2018-05-24T03:28:15.921Z,100800.10
2018-05-24T03:30:43.300Z,100796.91
2018-05-24T03:33:10.691Z,100791.92
2018-05-24T03:35:38.092Z,100792.33
2018-05-24T03:38:05.465Z,100795.63
2018-05-24T03:40:32.855Z,100786.95
2018-05-24T03:43:00.250Z,100784.48
2018-05-24T03:45:27.640Z,100784.25
2018-05-24T03:47:55.028Z,100785.01
2018-05-24T03:50:22.432Z,100776.73
2018-05-24T03:52:49.825Z,100769.67
2018-05-24T03:55:17.221Z,100767.44
2018-05-24T03:57:44.610Z,100763.11
2018-05-24T04:00:23.836Z,100765.23
2018-05-24T04:03:03.045Z,100763.47
2018-05-24T04:05:30.412Z,100764.41
2018-05-24T04:07:57.788Z,100762.00
2018-05-24T04:10:25.180Z,100766.11
2018-05-24T04:12:52.569Z,100767.20
2018-05-24T04:15:19.957Z,100774.78
2018-05-24T04:17:47.333Z,100779.66
2018-05-24T04:20:14.766Z,100780.77
2018-05-24T04:22:42.167Z,100785.67
2018-05-24T04:25:09.544Z,100790.27
2018-05-24T04:27:36.943Z,100793.82
2018-05-24T04:30:04.335Z,100796.99
2018-05-24T04:32:31.727Z,100802.41
2018-05-24T04:34:59.107Z,100802.01
2018-05-24T04:37:26.498Z,100802.14
2018-05-24T04:39:53.877Z,100803.80
2018-05-24T04:42:21.264Z,100806.87
2018-05-24T04:44:48.644Z,100805.76
2018-05-24T04:47:16.047Z,100807.98
2018-05-24T04:49:43.442Z,100811.29
2018-05-24T04:52:10.832Z,100819.94
2018-05-24T04:54:38.216Z,100812.23
2018-05-24T04:57:05.607Z,100809.04
2018-05-24T04:59:32.978Z,100818.95
2018-05-24T05:02:00.372Z,100817.11
2018-05-24T05:04:27.751Z,100816.83
2018-05-24T05:06:55.200Z,100814.13
2018-05-24T05:09:22.535Z,100814.09
2018-05-24T05:11:49.906Z,100810.41
2018-05-24T05:14:17.300Z,100805.90
2018-05-24T05:16:44.685Z,100805.42
2018-05-24T05:19:12.063Z,100794.83
2018-05-24T05:21:39.458Z,100800.45
2018-05-24T05:24:06.844Z,100805.17
2018-05-24T05:26:34.232Z,100806.11
2018-05-24T05:29:01.616Z,100803.64
2018-05-24T05:31:29.022Z,100806.70
2018-05-24T05:33:56.480Z,100807.19
2018-05-24T05:36:23.871Z,100810.17
2018-05-24T05:38:51.251Z,100813.16
2018-05-24T05:41:18.652Z,100811.76
2018-05-24T05:43:46.096Z,100818.10
2018-05-24T05:46:13.541Z,100821.35
2018-05-24T05:48:40.987Z,100823.54
2018-05-24T05:51:08.363Z,100820.86
2018-05-24T05:53:35.781Z,100832.70
2018-05-24T05:56:03.176Z,100846.45
2018-05-24T05:58:30.565Z,100847.26
2018-05-24T06:00:57.947Z,100846.67
2018-05-24T06:03:25.333Z,100848.86
2018-05-24T06:05:52.725Z,100853.63
2018-05-24T06:08:20.686Z,100854.85
2018-05-24T06:10:48.068Z,100852.03
2018-05-24T06:13:15.471Z,100856.45
2018-05-24T06:15:42.852Z,100858.28
2018-05-24T06:18:10.236Z,100849.50
2018-05-24T06:20:39.169Z,100851.38
2018-05-24T06:23:06.746Z,100848.05
2018-05-24T06:25:34.147Z,100847.97
2018-05-24T06:28:01.541Z,100845.14
2018-05-24T06:30:28.926Z,100841.24
2018-05-24T06:32:56.304Z,100849.33
2018-05-24T06:35:23.692Z,100847.55
2018-05-24T06:37:51.095Z,100850.33
2018-05-24T06:40:18.468Z,100839.17
2018-05-24T06:42:45.860Z,100839.41
2018-05-24T06:45:13.246Z,100845.28
2018-05-24T06:47:40.635Z,100843.17
2018-05-24T06:50:08.030Z,100842.70
2018-05-24T06:52:35.422Z,100843.75
2018-05-24T06:55:02.807Z,100840.78
2018-05-24T06:57:30.202Z,100843.67
2018-05-24T06:59:57.657Z,100846.00
2018-05-24T07:02:24.988Z,100843.42
2018-05-24T07:04:52.407Z,100847.63
2018-05-24T07:07:19.824Z,100845.95
2018-05-24T07:09:47.213Z,100845.91
2018-05-24T07:12:14.611Z,100834.74
2018-05-24T07:14:42.018Z,100839.05
2018-05-24T07:17:09.526Z,100836.05
2018-05-24T07:19:37.172Z,100839.33
2018-05-24T07:22:04.612Z,100844.86
2018-05-24T07:24:32.019Z,100834.72
2018-05-24T07:26:59.387Z,100833.73
2018-05-24T07:29:26.776Z,100836.89
2018-05-24T07:31:54.177Z,100838.42
2018-05-24T07:34:21.571Z,100836.03
2018-05-24T07:36:48.998Z,100847.19
2018-05-24T07:39:16.372Z,100842.52
2018-05-24T07:41:43.765Z,100842.53
2018-05-24T07:44:11.144Z,100844.92
2018-05-24T07:46:38.536Z,100844.02
2018-05-24T07:49:05.932Z,100847.74
2018-05-24T07:51:33.329Z,100842.84
2018-05-24T07:54:00.713Z,100845.86
2018-05-24T07:56:28.108Z,100846.91
2018-05-24T07:58:55.496Z,100847.48
2018-05-24T08:01:23.701Z,100845.27
2018-05-24T08:03:51.068Z,100842.55
2018-05-24T08:06:19.672Z,100844.73
2018-05-24T08:08:47.061Z,100848.86
2018-05-24T08:11:14.457Z,100848.11
2018-05-24T08:13:41.867Z,100849.53
2018-05-24T08:16:09.248Z,100849.52
2018-05-24T08:18:36.630Z,100854.84
2018-05-24T08:21:04.005Z,100850.77
2018-05-24T08:23:31.400Z,100857.36
2018-05-24T08:25:58.785Z,100853.15
2018-05-24T08:28:26.169Z,100859.81
2018-05-24T08:30:53.553Z,100851.17
2018-05-24T08:33:20.960Z,100854.15
2018-05-24T08:35:48.363Z,100853.26
2018-05-24T08:38:15.756Z,100847.56
2018-05-24T08:40:43.154Z,100856.03
2018-05-24T08:43:10.540Z,100848.77
2018-05-24T08:45:37.916Z,100852.92
2018-05-24T08:48:05.312Z,100855.87
2018-05-24T08:50:32.698Z,100850.27
2018-05-24T08:53:00.128Z,100855.42
2018-05-24T08:55:27.586Z,100854.63
2018-05-24T08:57:54.963Z,100846.54
2018-05-24T09:00:22.356Z,100845.55
2018-05-24T09:02:49.761Z,100845.51
2018-05-24T09:05:17.144Z,100844.56
2018-05-24T09:07:44.543Z,100850.11
2018-05-24T09:10:11.931Z,100843.18
2018-05-24T09:12:39.321Z,100845.27
2018-05-24T09:15:06.708Z,100847.83
2018-05-24T09:17:34.126Z,100848.93
2018-05-24T09:20:01.501Z,100856.20
2018-05-24T09:22:28.893Z,100855.23
2018-05-24T09:24:56.274Z,100855.20
2018-05-24T09:27:23.648Z,100861.28
2018-05-24T09:29:51.030Z,100861.73
2018-05-24T09:32:18.431Z,100859.95
2018-05-24T09:34:45.845Z,100857.84
2018-05-24T09:37:13.280Z,100859.16
2018-05-24T09:39:40.667Z,100863.81
2018-05-24T09:42:08.111Z,100866.86
2018-05-24T09:44:35.437Z,100870.30
2018-05-24T09:47:02.815Z,100865.62
2018-05-24T09:49:30.199Z,100868.34
2018-05-24T09:51:57.660Z,100870.38
2018-05-24T09:54:25.038Z,100870.89
2018-05-24T09:56:52.438Z,100874.06
2018-05-24T09:59:19.814Z,100869.98
2018-05-24T10:01:47.223Z,100866.97
2018-05-24T10:04:14.612Z,100868.46
2018-05-24T10:06:42.017Z,100863.58
2018-05-24T10:09:09.410Z,100864.61
2018-05-24T10:11:36.788Z,100859.16
2018-05-24T10:14:04.179Z,100869.14
2018-05-24T10:16:31.601Z,100861.58
2018-05-24T10:18:59.000Z,100860.14
2018-05-24T10:21:26.387Z,100863.53
2018-05-24T10:23:53.785Z,100862.99
2018-05-24T10:26:21.176Z,100857.20
2018-05-24T10:28:48.567Z,100861.40
2018-05-24T10:31:16.372Z,100869.41
2018-05-24T10:33:43.791Z,100858.84
2018-05-24T10:36:11.254Z,100859.92
2018-05-24T10:38:38.644Z,100857.23
2018-05-24T10:41:06.024Z,100852.31
2018-05-24T10:43:33.435Z,100853.34
2018-05-24T10:46:00.806Z,100851.45
2018-05-24T10:48:28.206Z,100857.29
2018-05-24T10:50:55.672Z,100846.27
2018-05-24T10:53:22.967Z,100848.25
2018-05-24T10:55:50.382Z,100848.92
2018-05-24T10:58:17.774Z,100844.66
2018-05-24T11:00:45.167Z,100838.48
2018-05-24T11:03:12.611Z,100835.38
2018-05-24T11:05:39.935Z,100832.16
2018-05-24T11:08:07.315Z,100833.30
2018-05-24T11:10:34.703Z,100831.17
2018-05-24T11:13:02.109Z,100824.91
2018-05-24T11:15:29.496Z,100825.48
2018-05-24T11:17:56.871Z,100829.02
2018-05-24T11:20:24.258Z,100832.41
2018-05-24T11:22:51.639Z,100832.95
2018-05-24T11:25:19.122Z,100834.34
2018-05-24T11:27:46.490Z,100835.22
2018-05-24T11:30:13.872Z,100830.28
2018-05-24T11:32:41.263Z,100832.84
2018-05-24T11:35:08.643Z,100832.68
2018-05-24T11:37:36.044Z,100821.36
2018-05-24T11:40:03.415Z,100823.94
2018-05-24T11:42:30.804Z,100821.16
2018-05-24T11:44:58.196Z,100812.33
2018-05-24T11:47:25.581Z,100808.02
2018-05-24T11:49:52.959Z,100816.02
2018-05-24T11:52:20.361Z,100814.14
2018-05-24T11:54:47.782Z,100818.62
2018-05-24T11:57:15.184Z,100807.52
2018-05-24T11:59:42.629Z,100808.38
2018-05-24T12:02:10.044Z,100801.70
2018-05-24T12:04:37.440Z,100802.52
2018-05-24T12:07:07.057Z,100797.91
2018-05-24T12:09:34.462Z,100805.81
2018-05-24T12:12:03.229Z,100800.84
2018-05-24T12:14:30.684Z,100802.08
2018-05-24T12:16:58.116Z,100789.84
2018-05-24T12:19:25.547Z,100786.81
2018-05-24T12:21:52.979Z,100786.11
2018-05-24T12:24:21.115Z,100783.58
2018-05-24T12:26:48.707Z,100784.91
2018-05-24T12:29:17.171Z,100779.63
2018-05-24T12:31:44.480Z,100777.00
2018-05-24T12:34:12.286Z,100776.78
2018-05-24T12:36:39.699Z,100770.18
2018-05-24T12:39:07.135Z,100767.11
2018-05-24T12:41:34.667Z,100767.95
2018-05-24T12:44:02.109Z,100773.30
2018-05-24T12:46:29.548Z,100770.81
2018-05-24T12:48:57.085Z,100770.94
2018-05-24T12:51:24.442Z,100766.69
2018-05-24T12:53:51.834Z,100768.05
2018-05-24T12:56:19.283Z,100759.28
2018-05-24T12:58:46.724Z,100766.37
2018-05-24T13:01:14.207Z,100767.60
2018-05-24T13:03:41.623Z,100772.48
2018-05-24T13:06:09.046Z,100764.30
2018-05-24T13:08:36.577Z,100758.33
2018-05-24T13:11:03.904Z,100752.72
2018-05-24T13:13:31.292Z,100750.55
2018-05-24T13:15:58.710Z,100751.23
2018-05-24T13:18:26.169Z,100743.59
2018-05-24T13:20:53.583Z,100742.10
2018-05-24T13:23:21.189Z,100740.47
2018-05-24T13:25:48.949Z,100736.62
2018-05-24T13:28:17.368Z,100729.52
2018-05-24T13:30:44.854Z,100727.20
2018-05-24T13:33:12.258Z,100730.64
2018-05-24T13:35:39.657Z,100731.46
2018-05-24T13:38:07.070Z,100731.33
2018-05-24T13:40:34.543Z,100724.22
2018-05-24T13:43:01.888Z,100711.25
2018-05-24T13:45:29.338Z,100714.79
2018-05-24T13:47:56.761Z,100719.69
2018-05-24T13:50:24.239Z,100715.45
2018-05-24T13:52:52.197Z,100715.19
2018-05-24T13:55:20.318Z,100715.88
2018-05-24T13:57:47.748Z,100712.62
2018-05-24T14:00:23.435Z,100702.24
2018-05-24T14:02:53.064Z,100701.67
2018-05-24T14:05:24.027Z,100694.85
2018-05-24T14:07:51.405Z,100698.69
2018-05-24T14:10:18.783Z,100700.98
2018-05-24T14:12:46.181Z,100698.55
2018-05-24T14:15:13.575Z,100695.28
2018-05-24T14:17:40.957Z,100697.98
2018-05-24T14:20:08.355Z,100696.20
2018-05-24T14:22:35.740Z,100695.66
2018-05-24T14:25:03.120Z,100692.92
2018-05-24T14:27:30.506Z,100705.10
2018-05-24T14:29:57.901Z,100694.97
2018-05-24T14:32:25.275Z,100703.11
2018-05-24T14:34:52.663Z,100704.10
2018-05-24T14:37:20.049Z,100703.31
2018-05-24T14:39:47.441Z,100705.80
2018-05-24T14:42:14.827Z,100697.04
2018-05-24T14:44:42.211Z,100695.55
2018-05-24T14:47:09.597Z,100693.77
2018-05-24T14:49:36.975Z,100697.47
2018-05-24T14:52:04.363Z,100693.20
2018-05-24T14:54:31.756Z,100687.88
2018-05-24T14:56:59.140Z,100684.87
2018-05-24T14:59:26.522Z,100682.31
2018-05-24T15:01:53.911Z,100676.83
2018-05-24T15:04:21.328Z,100676.27
2018-05-24T15:06:48.689Z,100674.09
2018-05-24T15:09:16.072Z,100675.31
2018-05-24T15:11:43.451Z,100672.27
2018-05-24T15:14:10.849Z,100676.66
2018-05-24T15:16:38.317Z,100673.89
2018-05-24T15:19:05.705Z,100671.86
2018-05-24T15:21:33.091Z,100679.36
2018-05-24T15:24:00.481Z,100672.36
2018-05-24T15:26:27.863Z,100672.86
2018-05-24T15:28:55.311Z,100669.02
2018-05-24T15:31:22.833Z,100666.16
2018-05-24T15:33:50.230Z,100672.98
2018-05-24T15:36:17.611Z,100670.83
2018-05-24T15:38:45.001Z,100664.24
2018-05-24T15:41:12.376Z,100672.73
2018-05-24T15:43:39.810Z,100669.58
2018-05-24T15:46:07.184Z,100675.41
2018-05-24T15:48:34.584Z,100678.87
2018-05-24T15:51:01.973Z,100668.49
2018-05-24T15:53:29.357Z,100666.83
2018-05-24T15:55:56.737Z,100667.40
2018-05-24T15:58:24.125Z,100664.67
2018-05-24T16:00:51.523Z,100667.13
2018-05-24T16:03:18.916Z,100665.48
2018-05-24T16:05:46.298Z,100671.64
2018-05-24T16:08:13.682Z,100666.71
2018-05-24T16:10:41.489Z,100670.51
2018-05-24T16:13:08.859Z,100662.67
2018-05-24T16:15:36.260Z,100658.55
2018-05-24T16:18:03.642Z,100655.70
2018-05-24T16:20:31.041Z,100656.61
2018-05-24T16:22:58.411Z,100655.92
2018-05-24T16:25:25.805Z,100654.72
2018-05-24T16:27:53.197Z,100653.16
2018-05-24T16:30:20.592Z,100664.06
2018-05-24T16:32:47.976Z,100663.28
2018-05-24T16:35:15.402Z,100661.37
2018-05-24T16:37:42.802Z,100661.35
2018-05-24T16:40:10.195Z,100660.44
2018-05-24T16:42:37.567Z,100668.55
2018-05-24T16:45:04.955Z,100664.99
2018-05-24T16:47:32.351Z,100658.30
2018-05-24T16:49:59.761Z,100662.90
2018-05-24T16:52:27.128Z,100658.06
2018-05-24T16:54:54.519Z,100654.51
2018-05-24T16:57:21.893Z,100653.93
2018-05-24T16:59:49.281Z,100648.59
2018-05-24T17:02:16.659Z,100655.17
2018-05-24T17:04:44.056Z,100654.52
2018-05-24T17:07:11.466Z,100657.21
2018-05-24T17:09:38.920Z,100650.83
2018-05-24T17:12:06.336Z,100649.51
2018-05-24T17:14:33.709Z,100650.51
2018-05-24T17:17:01.108Z,100647.47
2018-05-24T17:19:28.493Z,100656.59
2018-05-24T17:21:55.909Z,100655.94
2018-05-24T17:24:23.296Z,100649.49
2018-05-24T17:26:50.671Z,100654.27
2018-05-24T17:29:18.067Z,100660.30
2018-05-24T17:31:45.439Z,100664.79
2018-05-24T17:34:12.883Z,100668.36
2018-05-24T17:36:40.283Z,100659.06
2018-05-24T17:39:07.680Z,100665.08
2018-05-24T17:41:35.083Z,100666.45
2018-05-24T17:44:02.499Z,100669.72
2018-05-24T17:46:29.893Z,100663.84
2018-05-24T17:48:57.282Z,100665.66
2018-05-24T17:51:24.663Z,100660.59
2018-05-24T17:53:52.076Z,100660.14
2018-05-24T17:56:19.477Z,100662.45
2018-05-24T17:58:46.874Z,100666.09
2018-05-24T18:01:14.299Z,100671.75
2018-05-24T18:03:41.683Z,100673.44
2018-05-24T18:06:09.083Z,100678.64
2018-05-24T18:08:36.460Z,100676.68
2018-05-24T18:11:03.851Z,100677.34
2018-05-24T18:13:31.231Z,100675.88
2018-05-24T18:15:58.709Z,100676.36
2018-05-24T18:18:26.129Z,100674.52
2018-05-24T18:20:53.559Z,100682.88
2018-05-24T18:23:20.992Z,100683.59
2018-05-24T18:25:48.428Z,100688.33
2018-05-24T18:28:15.844Z,100680.03
2018-05-24T18:30:43.565Z,100682.06
2018-05-24T18:33:11.021Z,100678.75
2018-05-24T18:35:38.420Z,100673.25
2018-05-24T18:38:05.862Z,100681.32
2018-05-24T18:40:35.116Z,100685.53
2018-05-24T18:43:02.548Z,100684.11
2018-05-24T18:45:29.944Z,100686.33
2018-05-24T18:47:57.373Z,100691.78
2018-05-24T18:50:24.774Z,100688.73
2018-05-24T18:52:52.191Z,100697.48
2018-05-24T18:55:19.620Z,100694.23
2018-05-24T18:57:47.037Z,100704.33
2018-05-24T19:00:14.886Z,100713.67
2018-05-24T19:02:43.145Z,100711.91
2018-05-24T19:05:10.536Z,100714.45
2018-05-24T19:07:38.034Z,100716.44
2018-05-24T19:10:05.483Z,100714.53
2018-05-24T19:12:32.895Z,100718.87
2018-05-24T19:15:00.354Z,100717.52
2018-05-24T19:17:27.791Z,100720.54
2018-05-24T19:19:55.200Z,100726.59
2018-05-24T19:22:22.651Z,100728.37
2018-05-24T19:24:50.107Z,100727.38
2018-05-24T19:27:17.542Z,100731.98
2018-05-24T19:29:44.928Z,100733.50
2018-05-24T19:32:12.323Z,100736.14
2018-05-24T19:34:39.773Z,100734.06
2018-05-24T19:37:07.156Z,100737.84
2018-05-24T19:39:34.585Z,100737.55
2018-05-24T19:42:01.983Z,100743.81
2018-05-24T19:44:29.428Z,100744.91
2018-05-24T19:46:56.956Z,100741.31
2018-05-24T19:49:24.359Z,100737.73
2018-05-24T19:51:51.774Z,100742.37
2018-05-24T19:54:19.222Z,100743.05
2018-05-24T19:56:46.645Z,100748.08
2018-05-24T19:59:14.041Z,100747.89
2018-05-24T20:04:15.239Z,100752.88
2018-05-24T20:06:44.370Z,100757.27
2018-05-24T20:09:11.777Z,100757.70
2018-05-24T20:11:39.266Z,100763.12
2018-05-24T20:14:06.694Z,100761.11
2018-05-24T20:16:34.133Z,100764.78
2018-05-24T20:19:03.352Z,100764.75
2018-05-24T20:21:30.958Z,100768.40
2018-05-24T20:23:59.200Z,100760.95
2018-05-24T20:26:26.629Z,100765.66
2018-05-24T20:28:54.053Z,100758.97
2018-05-24T20:31:22.455Z,100757.77
2018-05-24T20:33:57.888Z,100761.86
2018-05-24T20:36:25.342Z,100752.09
2018-05-24T20:38:53.800Z,100747.81
2018-05-24T20:41:21.250Z,100748.20
2018-05-24T20:43:48.673Z,100750.28
2018-05-24T20:46:17.912Z,100748.95
2018-05-24T20:48:45.596Z,100753.91
2018-05-24T20:51:13.036Z,100751.55
2018-05-24T20:53:40.894Z,100747.12
2018-05-24T20:56:14.564Z,100751.94
2018-05-24T20:58:48.962Z,100753.60
2018-05-24T21:01:19.252Z,100750.69
2018-05-24T21:03:46.662Z,100745.00
2018-05-24T21:06:14.092Z,100746.53
2018-05-24T21:08:42.328Z,100747.56
2018-05-24T21:11:11.280Z,100743.02
2018-05-24T21:13:42.011Z,100744.60
2018-05-24T21:16:09.910Z,100745.48
2018-05-24T21:18:37.322Z,100746.39
2018-05-24T21:21:04.756Z,100741.33
2018-05-24T21:23:32.163Z,100741.80
2018-05-24T21:25:59.569Z,100743.26
2018-05-24T21:28:26.985Z,100743.98
2018-05-24T21:30:54.424Z,100742.32
2018-05-24T21:33:21.851Z,100740.59
2018-05-24T21:35:49.287Z,100740.89
2018-05-24T21:38:16.716Z,100742.83
2018-05-24T21:40:49.632Z,100736.27
2018-05-24T21:43:18.165Z,100735.00
2018-05-24T21:45:46.522Z,100740.48
2018-05-24T21:48:13.899Z,100742.09
2018-05-24T21:50:41.296Z,100742.40
2018-05-24T21:53:08.707Z,100742.98
2018-05-24T21:55:36.108Z,100745.22
2018-05-24T21:58:03.543Z,100748.11
2018-05-24T22:00:30.946Z,100751.38
2018-05-24T22:02:58.344Z,100750.77
2018-05-24T22:05:25.743Z,100754.63
2018-05-24T22:07:54.401Z,100752.80
2018-05-24T22:10:23.199Z,100750.13
2018-05-24T22:13:14.908Z,100750.86
2018-05-24T22:15:46.285Z,100747.00
2018-05-24T22:18:13.688Z,100750.55
2018-05-24T22:20:41.103Z,100751.01
2018-05-24T22:23:08.536Z,100757.17
2018-05-24T22:28:28.768Z,100762.27
2018-05-24T22:36:43.348Z,100768.87
2018-05-24T22:39:10.745Z,100763.91
2018-05-24T22:41:38.146Z,100760.62
2018-05-24T22:44:05.531Z,100760.66
2018-05-24T22:46:32.932Z,100763.95
2018-05-24T22:49:00.341Z,100768.91
2018-05-24T22:51:27.745Z,100770.09
2018-05-24T22:53:55.147Z,100771.81
2018-05-24T22:56:22.551Z,100773.89
2018-05-24T22:58:49.977Z,100773.56
2018-05-24T23:01:17.365Z,100774.97
2018-05-24T23:03:44.757Z,100768.91
2018-05-24T23:06:12.156Z,100767.38
2018-05-24T23:08:39.566Z,100762.65
2018-05-24T23:11:06.971Z,100760.27
2018-05-24T23:13:34.372Z,100766.72
2018-05-24T23:16:01.771Z,100762.84
2018-05-24T23:18:29.172Z,100758.90
2018-05-24T23:20:56.598Z,100762.25
2018-05-24T23:23:23.989Z,100763.88
2018-05-24T23:25:51.393Z,100760.84
2018-05-24T23:28:18.773Z,100766.03
2018-05-24T23:30:46.192Z,100765.45
2018-05-24T23:33:13.591Z,100765.00
2018-05-24T23:35:40.994Z,100757.50
2018-05-24T23:38:08.375Z,100766.42
2018-05-24T23:40:35.767Z,100764.67
2018-05-24T23:43:03.158Z,100763.91
2018-05-24T23:45:30.580Z,100759.50
2018-05-24T23:47:57.939Z,100757.70
2018-05-24T23:50:25.336Z,100768.35
2018-05-24T23:52:52.733Z,100760.35
2018-05-24T23:55:20.124Z,100766.95
2018-05-24T23:57:47.507Z,100774.42
